Terminal Aerodrome Forecast
Issued by NWS

Home | Current Version | Previous Version | Graphics & Text | Print | Product List | Glossary On
Versions: 1 2 3 4 5 6 7 8 9 10 11 12 13 14 15 16
000
FTUS43 KGRB 182300
TAFMTW
TAF
KMTW 182337Z 1900/1924 12004KT P6SM BKN022
      TEMPO 1900/1904 SCT025
     FM190400 VRB03KT P6SM SCT025 SCT200
     FM190700 17004KT P6SM SCT025
     FM191500 20012G20KT P6SM SCT100 BKN250=

USA.gov is the U.S. government's official web portal to all federal, state and local government web resources and services.